Georgetown, TX

1:22 PM CDT on August 30, 2015 (GMT -0500)
The Square | | Change Station
CLOSE
Current Station
Personal Weather Station
Location: Georgetown, TX
Elevation: 778 ft
Nearby Weather Stations

Elev 778 ft 30.64 °N, 97.68 °W | Updated 5 seconds ago

Clear
Clear
90.7 °F
Feels Like 94 °F
N
1.1
Wind Variable Wind from West

Today
High -- | Low -- °F
--% Chance of Precip.
Yesterday
High -- | Low -- °F
Precip. -- in
7:05 AM 7:56 PM
Full, 99% visible
Pressure 30.04 in
Visibility 10.0 miles
Clouds Clear
Heat Index 94 °F
Dew Point 67 °F
Humidity 46%
Rainfall 0.34 in
Snow Depth Not available.
UV 11 out of 12
Pollen 6.30 out of 12
Air Quality Not available.
Flu Activity Not available.
METAR KGTU 301750Z 17010G15KT 10SM CLR 31/17 A3004
Pressure 30.04 in
Visibility 10.0 miles
Clouds Clear
Heat Index 94 °F
Dew Point 67 °F
Humidity 46%
Rainfall 0.34 in
Snow Depth Not available.
UV 11 out of 12
Pollen 6.30 out of 12
Air Quality Not available.
Flu Activity Not available.
METAR KGTU 301750Z 17010G15KT 10SM CLR 31/17 A3004
Nowcast | as of 11:53 am CDT on August 30, 2015

Areas of sprinkles or very light rain will be possible across south central Texas today. Accumulations should average a trace with very little impact.

×

10-Day Weather Forecast

×

Almanac

Astronomy

Aug. 30, 2015 Rise Set
Actual Time
Civil Twilight
Nautical Twilight
Astronomical Twilight
Moon
Length of Visible Light
Length of Day
Tomorrow will be .
, % of the Moon is Illuminated

Today's Extremes

State Highs State Lows

Community

WunderPhotos

Upload Photos

1,851,029 photos uploaded!

WunderBlogs® & News

Nearby

Air Quality

  Air Quality AQ Index Pollutant
Not available.

Snow Depth

Station Depth Elevation

Earthquake Activity

City Distance Mag. Time & Date
Minimum magnitude displayed is 2.5.

Coastal Water Temperatures

Place Temperature

Stations

Nearby Weather Stations

Station Location Temp. Windchill Dew Point Humidity Wind Precip. Elev Updated Type